createdAt,value
2023-12-09T00:02:27.300Z,44.30
2023-12-09T00:04:56.422Z,47.35
2023-12-09T00:07:24.560Z,47.42
2023-12-09T00:09:52.097Z,45.30
2023-12-09T00:12:19.691Z,50.88
2023-12-09T00:14:47.223Z,52.00
2023-12-09T00:17:14.825Z,46.42
2023-12-09T00:19:43.756Z,48.90
2023-12-09T00:22:12.667Z,46.58
2023-12-09T00:24:40.252Z,46.95
2023-12-09T00:27:07.799Z,47.28
2023-12-09T00:29:35.367Z,48.13
2023-12-09T00:32:02.925Z,48.28
2023-12-09T00:34:30.472Z,46.13
2023-12-09T00:36:58.026Z,47.90
2023-12-09T00:39:26.977Z,46.83
2023-12-09T00:41:54.592Z,46.05
2023-12-09T00:44:22.443Z,43.75
2023-12-09T00:46:52.408Z,42.75
2023-12-09T00:49:20.212Z,43.38
2023-12-09T00:51:47.824Z,45.33
2023-12-09T00:54:15.466Z,46.40
2023-12-09T00:56:44.363Z,43.30
2023-12-09T00:59:11.937Z,46.03
2023-12-09T01:01:39.486Z,47.10
2023-12-09T01:04:07.840Z,45.22
2023-12-09T01:06:35.465Z,46.08
2023-12-09T01:09:03.029Z,42.70
2023-12-09T01:11:30.765Z,42.33
2023-12-09T01:13:59.621Z,40.03
2023-12-09T01:16:27.200Z,44.63
2023-12-09T01:18:54.935Z,38.08
2023-12-09T01:21:22.610Z,36.72
2023-12-09T01:23:50.312Z,40.15
2023-12-09T01:26:18.004Z,43.70
2023-12-09T01:28:45.682Z,42.22
2023-12-09T01:31:14.549Z,38.47
2023-12-09T01:33:42.237Z,40.03
2023-12-09T01:36:10.513Z,36.72
2023-12-09T01:38:38.182Z,35.88
2023-12-09T01:41:06.001Z,38.90
2023-12-09T01:43:33.580Z,41.72
2023-12-09T01:46:07.014Z,43.00
2023-12-09T01:48:37.275Z,39.22
2023-12-09T01:51:06.366Z,42.60
2023-12-09T01:53:34.064Z,44.38
2023-12-09T01:56:04.043Z,39.00
2023-12-09T01:58:31.846Z,44.13
2023-12-09T02:00:59.528Z,46.03
2023-12-09T02:03:27.241Z,46.58
2023-12-09T02:05:56.326Z,43.83
2023-12-09T02:08:23.921Z,44.60
2023-12-09T02:11:00.796Z,43.08
2023-12-09T02:13:34.871Z,43.75
2023-12-09T02:16:06.643Z,42.92
2023-12-09T02:21:03.937Z,44.53
2023-12-09T02:23:32.759Z,41.72
2023-12-09T02:26:07.189Z,42.65
2023-12-09T02:28:37.089Z,44.08
2023-12-09T02:31:11.308Z,40.92
2023-12-09T02:33:39.451Z,44.85
2023-12-09T02:36:08.305Z,45.65
2023-12-09T02:38:38.902Z,42.00
2023-12-09T02:41:08.010Z,44.30
2023-12-09T02:43:35.540Z,43.58
2023-12-09T02:46:03.155Z,43.05
2023-12-09T02:48:30.892Z,45.45
2023-12-09T02:50:58.560Z,44.38
2023-12-09T02:53:27.338Z,41.97
2023-12-09T02:55:56.224Z,41.72
2023-12-09T02:58:23.793Z,41.92
2023-12-09T03:00:51.563Z,41.65
2023-12-09T03:03:19.238Z,42.22
2023-12-09T03:05:46.859Z,42.60
2023-12-09T03:08:14.451Z,43.08
2023-12-09T03:10:42.339Z,44.05
2023-12-09T03:13:11.292Z,45.42
2023-12-09T03:15:38.929Z,45.80
2023-12-09T03:18:06.587Z,48.60
2023-12-09T03:20:34.169Z,47.08
2023-12-09T03:23:01.702Z,46.78
2023-12-09T03:25:29.306Z,43.10
2023-12-09T03:27:58.479Z,45.78
2023-12-09T03:30:29.479Z,48.53
2023-12-09T03:32:57.170Z,49.10
2023-12-09T03:35:24.739Z,53.88
2023-12-09T03:37:52.298Z,53.92
2023-12-09T03:40:19.844Z,52.03
2023-12-09T03:42:47.399Z,50.83
2023-12-09T03:45:15.000Z,49.83
2023-12-09T03:47:44.094Z,49.60
2023-12-09T03:50:12.020Z,51.13
2023-12-09T03:52:39.531Z,49.40
2023-12-09T03:55:07.719Z,50.60
2023-12-09T03:57:35.420Z,49.58
2023-12-09T04:00:05.236Z,49.25
2023-12-09T04:02:32.823Z,52.47
2023-12-09T04:05:01.718Z,51.78
2023-12-09T04:07:31.770Z,51.92
2023-12-09T04:09:59.951Z,52.03
2023-12-09T04:12:27.819Z,52.17
2023-12-09T04:14:55.624Z,50.55
2023-12-09T04:17:23.364Z,52.78
2023-12-09T04:19:52.836Z,50.75
2023-12-09T04:22:21.916Z,52.30
2023-12-09T04:24:49.528Z,44.90
2023-12-09T04:27:17.909Z,46.28
2023-12-09T04:29:45.527Z,52.67
2023-12-09T04:32:13.245Z,53.72
2023-12-09T04:34:41.037Z,59.88
2023-12-09T04:37:08.687Z,55.33
2023-12-09T04:39:37.752Z,57.45
2023-12-09T04:42:05.750Z,61.97
2023-12-09T04:44:33.368Z,60.13
2023-12-09T04:47:01.887Z,62.00
2023-12-09T04:49:30.349Z,63.28
2023-12-09T04:51:57.973Z,61.10
2023-12-09T04:54:25.983Z,59.95
2023-12-09T04:56:55.347Z,65.03
2023-12-09T04:59:23.063Z,63.50
2023-12-09T05:01:50.884Z,63.85
2023-12-09T05:04:18.769Z,62.95
2023-12-09T05:06:46.548Z,62.05
2023-12-09T05:09:14.587Z,63.00
2023-12-09T05:11:42.488Z,62.35
2023-12-09T05:14:11.484Z,63.30
2023-12-09T05:16:39.140Z,57.80
2023-12-09T05:19:08.333Z,59.30
2023-12-09T05:21:36.797Z,57.30
2023-12-09T05:24:05.533Z,60.92
2023-12-09T05:26:34.781Z,56.03
2023-12-09T05:29:02.429Z,57.80
2023-12-09T05:31:31.577Z,58.55
2023-12-09T05:33:59.249Z,56.95
2023-12-09T05:36:26.978Z,56.97
2023-12-09T05:38:54.763Z,58.75
2023-12-09T05:41:22.965Z,57.15
2023-12-09T05:43:50.439Z,57.65
2023-12-09T05:46:21.592Z,59.00
2023-12-09T05:48:51.379Z,56.58
2023-12-09T05:51:19.078Z,60.75
2023-12-09T05:53:46.603Z,59.08
2023-12-09T05:56:14.169Z,63.80
2023-12-09T05:58:41.771Z,59.30
2023-12-09T06:01:10.035Z,64.43
2023-12-09T06:03:37.941Z,63.72
2023-12-09T06:06:08.002Z,59.30
2023-12-09T06:08:35.602Z,63.40
2023-12-09T06:11:03.269Z,60.83
2023-12-09T06:13:31.487Z,59.85
2023-12-09T06:15:59.140Z,65.72
2023-12-09T06:18:27.302Z,64.13
2023-12-09T06:20:55.307Z,61.08
2023-12-09T06:23:24.328Z,65.95
2023-12-09T06:25:51.915Z,62.15
2023-12-09T06:28:19.456Z,66.75
2023-12-09T06:30:47.249Z,65.78
2023-12-09T06:33:15.064Z,60.38
2023-12-09T06:35:43.356Z,60.53
2023-12-09T06:38:10.947Z,58.05
2023-12-09T06:40:40.113Z,51.65
2023-12-09T06:43:07.777Z,54.00
2023-12-09T06:45:35.366Z,53.58
2023-12-09T06:48:03.327Z,55.45
2023-12-09T06:50:31.010Z,55.47
2023-12-09T06:52:58.499Z,57.10
2023-12-09T06:55:26.356Z,56.15
2023-12-09T06:57:55.455Z,57.03
2023-12-09T07:00:23.296Z,57.60
2023-12-09T07:02:58.798Z,55.10
2023-12-09T07:05:28.291Z,56.85
2023-12-09T07:07:56.523Z,58.03
2023-12-09T07:10:24.232Z,53.60
2023-12-09T07:12:51.877Z,55.05
2023-12-09T07:15:21.748Z,58.58
2023-12-09T07:17:49.601Z,55.70
2023-12-09T07:20:17.340Z,54.05
2023-12-09T07:22:45.562Z,52.78
2023-12-09T07:25:13.329Z,53.70
2023-12-09T07:27:40.981Z,56.72
2023-12-09T07:30:09.528Z,54.78
2023-12-09T07:32:38.663Z,53.42
2023-12-09T07:35:07.348Z,53.95
2023-12-09T07:37:34.973Z,53.97
2023-12-09T07:40:05.880Z,51.80
2023-12-09T07:42:33.518Z,39.13
2023-12-09T07:45:01.300Z,51.63
2023-12-09T07:47:28.863Z,49.38
2023-12-09T07:49:57.764Z,48.95
2023-12-09T07:52:25.599Z,48.25
2023-12-09T07:54:53.421Z,48.53
2023-12-09T07:57:21.543Z,45.55
2023-12-09T07:59:49.316Z,47.42
2023-12-09T08:02:16.966Z,47.53
2023-12-09T08:04:44.615Z,44.83
2023-12-09T08:07:13.917Z,40.90
2023-12-09T08:09:41.742Z,37.85
2023-12-09T08:12:09.939Z,42.40
2023-12-09T08:14:37.752Z,41.08
2023-12-09T08:17:06.015Z,41.28
2023-12-09T08:19:33.940Z,41.47
2023-12-09T08:22:02.186Z,41.55
2023-12-09T08:24:31.287Z,39.33
2023-12-09T08:26:59.171Z,38.53
2023-12-09T08:29:29.741Z,40.05
2023-12-09T08:31:58.233Z,39.80
2023-12-09T08:34:28.615Z,38.58
2023-12-09T08:36:56.724Z,38.35
2023-12-09T08:39:24.757Z,38.55
2023-12-09T08:42:01.324Z,38.90
2023-12-09T08:44:29.059Z,39.25
2023-12-09T08:46:57.584Z,37.40
2023-12-09T08:49:28.610Z,35.88
2023-12-09T08:51:56.368Z,39.35
2023-12-09T08:54:24.161Z,37.75
2023-12-09T08:56:53.195Z,36.22
2023-12-09T08:59:20.844Z,35.90
2023-12-09T09:01:48.686Z,35.90
2023-12-09T09:04:16.986Z,36.47
2023-12-09T09:06:44.798Z,36.28
2023-12-09T09:09:12.992Z,33.10
2023-12-09T09:11:40.633Z,34.38
2023-12-09T09:14:09.542Z,34.33
2023-12-09T09:16:37.260Z,35.35
2023-12-09T09:19:07.164Z,34.13
2023-12-09T09:21:34.983Z,36.92
2023-12-09T09:24:03.653Z,36.78
2023-12-09T09:26:31.291Z,34.17
2023-12-09T09:28:59.050Z,32.60
2023-12-09T09:31:28.144Z,34.42
2023-12-09T09:33:56.237Z,32.97
2023-12-09T09:36:24.219Z,32.97
2023-12-09T09:38:52.415Z,34.47
2023-12-09T09:41:24.391Z,35.15
2023-12-09T09:44:00.194Z,34.30
2023-12-09T09:46:29.503Z,31.60
2023-12-09T09:48:56.754Z,30.83
2023-12-09T09:51:27.925Z,31.25
2023-12-09T09:54:05.129Z,22.02
2023-12-09T09:56:33.691Z,30.15
2023-12-09T09:59:01.340Z,27.70
2023-12-09T10:01:32.128Z,28.67
2023-12-09T10:03:59.946Z,28.48
2023-12-09T10:06:27.689Z,27.25
2023-12-09T10:08:55.957Z,27.88
2023-12-09T10:11:23.465Z,25.60
2023-12-09T10:13:51.973Z,27.65
2023-12-09T10:16:19.515Z,26.48
2023-12-09T10:18:49.033Z,26.70
2023-12-09T10:21:17.490Z,28.50
2023-12-09T10:23:46.720Z,26.02
2023-12-09T10:26:14.653Z,27.20
2023-12-09T10:28:42.640Z,27.30
2023-12-09T10:31:10.755Z,26.85
2023-12-09T10:33:38.645Z,25.88
2023-12-09T10:36:09.766Z,27.27
2023-12-09T10:38:43.213Z,24.25
2023-12-09T10:41:11.174Z,25.83
2023-12-09T10:43:38.780Z,24.23
2023-12-09T10:46:06.893Z,24.52
2023-12-09T10:48:34.609Z,25.45
2023-12-09T10:51:02.764Z,25.10
2023-12-09T10:53:31.737Z,23.05
2023-12-09T10:56:00.100Z,22.08
2023-12-09T10:58:28.566Z,22.88
2023-12-09T11:00:59.124Z,21.45
2023-12-09T11:03:27.395Z,23.23
2023-12-09T11:05:56.146Z,20.20
2023-12-09T11:08:24.935Z,21.05
2023-12-09T11:10:54.142Z,20.20
2023-12-09T11:13:21.712Z,19.58
2023-12-09T11:15:49.398Z,17.65
2023-12-09T11:18:18.766Z,19.10
2023-12-09T11:20:47.875Z,19.48
2023-12-09T11:23:15.757Z,18.58
2023-12-09T11:25:44.218Z,16.73
2023-12-09T11:28:14.124Z,18.63
2023-12-09T11:30:43.316Z,18.55
2023-12-09T11:33:11.296Z,16.60
2023-12-09T11:35:39.713Z,17.35
2023-12-09T11:38:09.950Z,17.25
2023-12-09T11:40:37.752Z,17.30
2023-12-09T11:43:07.705Z,17.00
2023-12-09T11:45:38.111Z,16.80
2023-12-09T11:48:07.017Z,16.67
2023-12-09T11:50:35.278Z,15.57
2023-12-09T11:53:02.923Z,14.75
2023-12-09T11:55:32.752Z,15.50
2023-12-09T11:58:00.567Z,16.67
2023-12-09T12:00:28.284Z,16.02
2023-12-09T12:02:57.286Z,17.42
2023-12-09T12:05:27.299Z,16.13
2023-12-09T12:07:55.121Z,16.15
2023-12-09T12:10:22.902Z,15.65
2023-12-09T12:12:50.553Z,13.85
2023-12-09T12:15:18.758Z,14.30
2023-12-09T12:17:46.699Z,14.30
2023-12-09T12:20:15.652Z,15.02
2023-12-09T12:22:43.596Z,14.77
2023-12-09T12:25:11.774Z,17.65
2023-12-09T12:27:44.103Z,15.68
2023-12-09T12:30:31.831Z,14.35
2023-12-09T12:32:59.833Z,13.55
2023-12-09T12:35:29.403Z,14.73
2023-12-09T12:37:57.846Z,14.15
2023-12-09T12:40:30.657Z,15.52
2023-12-09T12:42:58.598Z,13.05
2023-12-09T12:45:33.559Z,14.63
2023-12-09T12:48:01.750Z,14.50
2023-12-09T12:50:38.438Z,13.20
2023-12-09T12:53:07.276Z,14.10
2023-12-09T12:55:38.276Z,13.15
2023-12-09T12:58:08.619Z,13.87
2023-12-09T13:00:40.804Z,13.93
2023-12-09T13:03:14.621Z,12.35
2023-12-09T13:05:43.760Z,11.38
2023-12-09T13:08:11.722Z,13.02
2023-12-09T13:10:39.459Z,12.95
2023-12-09T13:13:08.962Z,11.20
2023-12-09T13:15:36.936Z,10.88
2023-12-09T13:18:07.435Z,11.02
2023-12-09T13:20:39.070Z,11.95
2023-12-09T13:23:12.726Z,10.93
2023-12-09T13:25:40.332Z,9.77
2023-12-09T13:28:07.992Z,9.10
2023-12-09T13:30:35.715Z,9.82
2023-12-09T13:33:04.037Z,8.68
2023-12-09T13:35:34.375Z,8.75
2023-12-09T13:38:03.759Z,8.50
2023-12-09T13:40:32.984Z,9.10
2023-12-09T13:43:00.773Z,8.73
2023-12-09T13:45:37.310Z,8.95
2023-12-09T13:48:06.091Z,9.07
2023-12-09T13:50:35.630Z,8.60
2023-12-09T13:53:04.216Z,8.68
2023-12-09T13:55:33.291Z,8.77
2023-12-09T13:58:00.999Z,9.30
2023-12-09T14:00:28.802Z,8.15
2023-12-09T14:02:57.306Z,9.00
2023-12-09T14:05:25.222Z,8.32
2023-12-09T14:07:53.259Z,8.77
2023-12-09T14:10:21.613Z,8.30
2023-12-09T14:12:50.603Z,10.82
2023-12-09T14:15:18.355Z,9.57
2023-12-09T14:17:46.153Z,9.35
2023-12-09T14:20:17.107Z,9.18
2023-12-09T14:22:46.189Z,6.75
2023-12-09T14:25:14.115Z,8.90
2023-12-09T14:27:42.152Z,9.10
2023-12-09T14:30:12.934Z,8.27
2023-12-09T14:32:46.868Z,5.90
2023-12-09T14:35:15.890Z,8.55
2023-12-09T14:37:52.739Z,11.15
2023-12-09T14:40:26.570Z,8.93
2023-12-09T14:42:56.366Z,8.98
2023-12-09T14:45:25.911Z,9.38
2023-12-09T14:48:01.731Z,8.73
2023-12-09T14:50:40.968Z,8.57
2023-12-09T14:55:53.392Z,8.40
2023-12-09T14:58:23.900Z,8.43
2023-12-09T15:00:57.623Z,8.40
2023-12-09T15:03:25.334Z,8.90
2023-12-09T15:05:53.238Z,9.30
2023-12-09T15:08:25.076Z,9.43
2023-12-09T15:13:22.317Z,8.88
2023-12-09T15:15:50.107Z,9.15
2023-12-09T15:18:22.266Z,10.27
2023-12-09T15:20:52.116Z,9.48
2023-12-09T15:23:19.681Z,10.68
2023-12-09T15:25:47.997Z,11.02
2023-12-09T15:28:16.323Z,10.50
2023-12-09T15:30:44.716Z,11.10
2023-12-09T15:33:12.456Z,11.00
2023-12-09T15:35:41.566Z,11.07
2023-12-09T15:38:12.283Z,11.70
2023-12-09T15:40:39.842Z,10.35
2023-12-09T15:43:06.514Z,10.18
2023-12-09T15:45:34.195Z,10.88
2023-12-09T15:48:02.417Z,12.02
2023-12-09T15:50:30.136Z,11.88
2023-12-09T15:52:59.059Z,12.93
2023-12-09T15:55:26.669Z,13.07
2023-12-09T15:57:58.865Z,13.23
2023-12-09T16:00:26.508Z,13.35
2023-12-09T16:02:56.776Z,14.98
2023-12-09T16:05:25.020Z,15.05
2023-12-09T16:07:52.834Z,14.85
2023-12-09T16:10:21.910Z,15.15
2023-12-09T16:12:49.609Z,16.70
2023-12-09T16:15:19.001Z,16.75
2023-12-09T16:17:48.337Z,16.45
2023-12-09T16:20:16.849Z,17.85
2023-12-09T16:22:44.843Z,17.02
2023-12-09T16:25:12.644Z,17.50
2023-12-09T16:27:41.739Z,18.05
2023-12-09T16:30:11.906Z,17.67
2023-12-09T16:32:39.875Z,16.50
2023-12-09T16:35:08.505Z,17.30
2023-12-09T16:37:40.233Z,18.77
2023-12-09T16:42:38.474Z,18.40
2023-12-09T16:45:12.286Z,18.05
2023-12-09T16:47:41.246Z,19.42
2023-12-09T16:50:11.954Z,18.77
2023-12-09T16:52:40.092Z,18.42
2023-12-09T16:55:08.567Z,21.00
2023-12-09T16:57:36.214Z,20.25
2023-12-09T17:00:05.441Z,20.25
2023-12-09T17:02:34.454Z,18.45
2023-12-09T17:05:02.306Z,20.35
2023-12-09T17:07:30.060Z,20.15
2023-12-09T17:09:57.654Z,19.67
2023-12-09T17:12:25.385Z,19.25
2023-12-09T17:14:53.122Z,21.10
2023-12-09T17:17:20.730Z,20.17
2023-12-09T17:19:53.071Z,20.88
2023-12-09T17:22:20.590Z,21.10
2023-12-09T17:24:48.364Z,22.30
2023-12-09T17:27:16.124Z,20.23
2023-12-09T17:29:45.012Z,20.23
2023-12-09T17:32:13.942Z,20.48
2023-12-09T17:34:41.721Z,20.52
2023-12-09T17:37:10.754Z,20.25
2023-12-09T17:39:39.010Z,20.52
2023-12-09T17:42:08.644Z,21.67
2023-12-09T17:44:36.352Z,20.35
2023-12-09T17:47:04.289Z,20.02
2023-12-09T17:49:32.038Z,20.35
2023-12-09T17:52:01.236Z,20.98
2023-12-09T17:54:30.553Z,21.23
2023-12-09T17:56:58.112Z,21.40
2023-12-09T17:59:26.275Z,20.58
2023-12-09T18:02:06.645Z,20.10
2023-12-09T18:04:37.217Z,21.33
2023-12-09T18:07:12.765Z,20.63
2023-12-09T18:09:49.555Z,20.13
2023-12-09T18:12:21.015Z,20.50
2023-12-09T18:14:48.824Z,21.67
2023-12-09T18:17:28.760Z,22.02
2023-12-09T18:19:57.094Z,21.08
2023-12-09T18:22:24.705Z,21.13
2023-12-09T18:24:53.752Z,22.02
2023-12-09T18:27:21.529Z,21.65
2023-12-09T18:29:49.190Z,23.38
2023-12-09T18:32:17.092Z,21.33
2023-12-09T18:34:45.019Z,22.70
2023-12-09T18:37:13.161Z,23.55
2023-12-09T18:39:40.767Z,22.33
2023-12-09T18:42:10.528Z,23.05
2023-12-09T18:44:38.185Z,21.63
2023-12-09T18:47:06.009Z,21.80
2023-12-09T18:49:33.622Z,22.00
2023-12-09T18:52:01.279Z,23.92
2023-12-09T18:54:28.911Z,22.45
2023-12-09T18:56:56.500Z,22.92
2023-12-09T18:59:25.441Z,21.83
2023-12-09T19:02:01.671Z,22.80
2023-12-09T19:04:43.033Z,21.85
2023-12-09T19:07:43.049Z,21.60
2023-12-09T19:14:06.309Z,22.67
2023-12-09T19:16:38.164Z,22.58
2023-12-09T19:19:25.069Z,23.10
2023-12-09T19:22:07.135Z,21.73
2023-12-09T19:27:15.321Z,21.42
2023-12-09T19:29:45.937Z,21.80
2023-12-09T19:32:22.579Z,20.50
2023-12-09T20:08:46.570Z,20.63
2023-12-09T20:14:45.933Z,19.73
2023-12-09T20:17:36.971Z,20.42
2023-12-09T20:20:30.168Z,19.70
2023-12-09T20:26:25.161Z,19.45
2023-12-09T20:29:08.795Z,19.42
2023-12-09T20:32:04.399Z,18.83
2023-12-09T20:34:49.044Z,20.05
2023-12-09T20:37:22.857Z,21.20
2023-12-09T20:40:01.365Z,19.23
2023-12-09T20:42:45.221Z,20.85
2023-12-09T20:45:50.909Z,19.65
2023-12-09T20:48:32.727Z,19.30
2023-12-09T21:04:14.239Z,21.50
2023-12-09T21:06:42.181Z,22.23
2023-12-09T21:09:37.866Z,21.98
2023-12-09T21:12:50.312Z,21.65
2023-12-09T21:18:38.771Z,20.63
2023-12-09T21:22:20.138Z,22.42
2023-12-09T21:24:50.056Z,21.00
2023-12-09T21:27:36.620Z,22.33
2023-12-09T21:33:49.478Z,20.17
2023-12-09T21:40:13.359Z,18.48
2023-12-09T21:42:46.675Z,18.17
2023-12-09T21:45:15.703Z,17.95
2023-12-09T21:47:44.061Z,18.05
2023-12-09T21:50:16.795Z,17.42
2023-12-09T21:52:47.760Z,16.60
2023-12-09T21:55:40.969Z,16.38
2023-12-09T21:59:00.223Z,16.63
2023-12-09T22:05:41.388Z,15.63
2023-12-09T22:08:08.929Z,14.70
2023-12-09T22:10:37.869Z,15.55
2023-12-09T22:13:06.521Z,15.93
2023-12-09T22:15:34.203Z,15.23
2023-12-09T22:18:01.962Z,16.33
2023-12-09T22:20:32.065Z,15.82
2023-12-09T22:22:59.839Z,15.15
2023-12-09T22:25:27.610Z,14.88
2023-12-09T22:27:55.268Z,15.75
2023-12-09T22:30:22.845Z,15.20
2023-12-09T22:32:50.547Z,16.63
2023-12-09T22:35:18.175Z,15.98
2023-12-09T22:37:47.072Z,15.10
2023-12-09T22:40:14.904Z,15.65
2023-12-09T22:42:42.551Z,14.80
2023-12-09T22:45:11.530Z,16.15
2023-12-09T22:47:39.398Z,14.55
2023-12-09T22:50:08.439Z,14.73
2023-12-09T22:52:36.041Z,14.77
2023-12-09T22:55:05.815Z,15.93
2023-12-09T22:57:33.377Z,14.25
2023-12-09T23:00:00.982Z,13.95
2023-12-09T23:02:28.802Z,14.48
2023-12-09T23:04:56.549Z,15.38
2023-12-09T23:07:24.292Z,14.60
2023-12-09T23:09:51.984Z,14.60
2023-12-09T23:12:21.061Z,13.73
2023-12-09T23:14:48.733Z,13.82
2023-12-09T23:17:16.289Z,14.85
2023-12-09T23:19:46.769Z,14.57
2023-12-09T23:22:14.567Z,14.73
2023-12-09T23:24:42.504Z,15.77
2023-12-09T23:27:10.194Z,15.63
2023-12-09T23:29:39.133Z,15.15
2023-12-09T23:32:07.120Z,15.63
2023-12-09T23:34:34.805Z,15.52
2023-12-09T23:37:02.421Z,15.70
2023-12-09T23:39:30.015Z,16.40
2023-12-09T23:41:57.594Z,15.52
2023-12-09T23:44:25.084Z,15.85
2023-12-09T23:46:53.962Z,15.73
2023-12-09T23:49:21.721Z,17.25
2023-12-09T23:51:49.532Z,17.25
2023-12-09T23:54:17.185Z,16.65
2023-12-09T23:56:45.766Z,15.90
2023-12-09T23:59:13.460Z,17.42
